Terminal Aerodrome Forecast
Issued by NWS

Home | Current Version | Previous Version | Graphics & Text | Print | Product List | Glossary On
Versions: 1 2 3 4 5 6 7 8 9 10 11 12 13 14 15 16 17 18 19 20 21 22 23 24 25 26
350
FTUS45 KGGW 240520
TAFOLF
TAF
KOLF 240520Z 2406/2506 30005KT P6SM VCSH FEW005 OVC025
      TEMPO 2406/2410 2SM BR OVC001
     FM241300 34010KT 5SM -SHRA OVC015
     FM250000 33021G29KT 5SM -SHRA OVC015
     FM250500 32019G27KT P6SM BKN035=

USA.gov is the U.S. government's official web portal to all federal, state and local government web resources and services.